Time;durP1;ratioP1;P1;durP2;ratioP2;P2;SDS_P1;SDS_P2;PMS_P1;PMS_P2;Temp;Humidity;BMP_temperature;BMP_pressure;BME280_temperature;BME280_humidity;BME280_pressure;Samples;Min_cycle;Max_cycle;Signal;HPM_P1;HPM_P2
2022/07/25 00:01:13;;;;;;;1.52;1.42;;;;;;;;;;5073940;28;20024;-70
2022/07/25 00:03:39;;;;;;;1.40;1.30;;;;;;;;;;5073766;28;20112;-69
2022/07/25 00:06:05;;;;;;;1.55;1.45;;;;;;;;;;5073981;28;20025;-69
2022/07/25 00:08:30;;;;;;;1.48;1.38;;;;;;;;;;5073667;28;20047;-69
2022/07/25 00:10:56;;;;;;;1.65;1.55;;;;;;;;;;5074055;28;20025;-69
2022/07/25 00:13:21;;;;;;;1.60;1.48;;;;;;;;;;5073503;28;20032;-69
2022/07/25 00:15:46;;;;;;;1.60;1.50;;;;;;;;;;5073798;28;20411;-69
2022/07/25 00:18:12;;;;;;;1.65;1.55;;;;;;;;;;5073962;28;20042;-70
2022/07/25 00:20:37;;;;;;;1.58;1.48;;;;;;;;;;5073984;28;20066;-69
2022/07/25 00:23:03;;;;;;;1.33;1.33;;;;;;;;;;5073572;28;20373;-69
2022/07/25 00:25:28;;;;;;;1.70;1.60;;;;;;;;;;5055911;28;20032;-69
2022/07/25 00:27:54;;;;;;;1.27;1.25;;;;;;;;;;5073175;28;20029;-69
2022/07/25 00:30:19;;;;;;;1.20;1.20;;;;;;;;;;5073487;28;20521;-69
2022/07/25 00:32:45;;;;;;;1.65;1.55;;;;;;;;;;5073897;28;20017;-69
2022/07/25 00:35:10;;;;;;;1.65;1.55;;;;;;;;;;5073555;28;20071;-69
2022/07/25 00:37:36;;;;;;;1.60;1.50;;;;;;;;;;5073775;28;20506;-69
2022/07/25 00:40:01;;;;;;;1.38;1.38;;;;;;;;;;5073474;28;20028;-69
2022/07/25 00:42:27;;;;;;;1.65;1.55;;;;;;;;;;5073751;28;20384;-69
2022/07/25 00:44:52;;;;;;;2.65;1.48;;;;;;;;;;5073509;28;20438;-69
2022/07/25 00:47:18;;;;;;;1.50;1.40;;;;;;;;;;5076965;28;20039;-70
2022/07/25 00:49:43;;;;;;;2.85;1.60;;;;;;;;;;5076937;28;20016;-69
2022/07/25 00:52:09;;;;;;;3.25;1.35;;;;;;;;;;5077365;28;20035;-69
2022/07/25 00:54:34;;;;;;;1.85;1.45;;;;;;;;;;5058928;28;20017;-70
2022/07/25 00:57:00;;;;;;;1.42;1.42;;;;;;;;;;5077109;28;20032;-70
2022/07/25 00:59:25;;;;;;;1.23;1.23;;;;;;;;;;5076842;28;20025;-70
2022/07/25 01:01:51;;;;;;;1.63;1.50;;;;;;;;;;5076746;28;20024;-69
2022/07/25 01:04:16;;;;;;;1.80;1.70;;;;;;;;;;5076829;28;20025;-69
2022/07/25 01:06:42;;;;;;;2.92;1.50;;;;;;;;;;5077017;28;20044;-69
2022/07/25 01:09:08;;;;;;;1.48;1.40;;;;;;;;;;5076946;28;20020;-69
2022/07/25 01:11:33;;;;;;;1.50;1.40;;;;;;;;;;5076519;28;20028;-69
2022/07/25 01:13:58;;;;;;;1.52;1.42;;;;;;;;;;5076832;28;20017;-69
2022/07/25 01:16:24;;;;;;;2.63;1.48;;;;;;;;;;5076471;28;20032;-69
2022/07/25 01:18:49;;;;;;;1.33;1.23;;;;;;;;;;5076847;28;20062;-71
2022/07/25 01:21:15;;;;;;;1.50;1.38;;;;;;;;;;5076615;28;20033;-71
2022/07/25 01:23:40;;;;;;;2.72;1.48;;;;;;;;;;5076119;28;20048;-71
2022/07/25 01:26:07;;;;;;;1.65;1.55;;;;;;;;;;5076402;28;20384;-71
2022/07/25 01:28:32;;;;;;;1.65;1.55;;;;;;;;;;5076018;28;20017;-71
2022/07/25 01:30:58;;;;;;;1.42;1.33;;;;;;;;;;5076301;28;20389;-71
2022/07/25 01:33:23;;;;;;;1.73;1.30;;;;;;;;;;5076409;28;20379;-70
2022/07/25 01:35:49;;;;;;;1.50;1.40;;;;;;;;;;5076105;28;20079;-70
2022/07/25 01:38:14;;;;;;;1.58;1.48;;;;;;;;;;5076425;28;20020;-71
2022/07/25 01:40:40;;;;;;;1.65;1.50;;;;;;;;;;5076500;28;20066;-70
2022/07/25 01:43:06;;;;;;;1.67;1.58;;;;;;;;;;5075767;28;20020;-70
2022/07/25 01:45:31;;;;;;;1.65;1.50;;;;;;;;;;5075883;28;20021;-70
2022/07/25 01:47:57;;;;;;;2.90;1.50;;;;;;;;;;5075685;28;20024;-70
2022/07/25 01:50:22;;;;;;;1.88;1.35;;;;;;;;;;5076162;28;20052;-70
2022/07/25 01:52:48;;;;;;;2.47;1.60;;;;;;;;;;5076074;28;20052;-70
2022/07/25 01:55:13;;;;;;;1.98;1.80;;;;;;;;;;5076156;28;20130;-70
2022/07/25 01:57:39;;;;;;;3.42;1.70;;;;;;;;;;5075699;28;20039;-70
2022/07/25 02:00:05;;;;;;;1.70;1.60;;;;;;;;;;5075705;28;20039;-70
2022/07/25 02:02:37;;;;;;;1.30;1.30;;;;;;;;;;5076111;28;20117;-70
2022/07/25 02:05:03;;;;;;;1.50;1.45;;;;;;;;;;5075675;28;20067;-70
2022/07/25 02:07:28;;;;;;;1.48;1.40;;;;;;;;;;5075732;28;20071;-70
2022/07/25 02:09:53;;;;;;;1.23;1.23;;;;;;;;;;5075671;28;20086;-70
2022/07/25 02:12:19;;;;;;;1.80;1.50;;;;;;;;;;5075603;28;20020;-70
2022/07/25 02:14:44;;;;;;;1.70;1.60;;;;;;;;;;5075654;28;20100;-70
2022/07/25 02:17:10;;;;;;;1.80;1.70;;;;;;;;;;5075111;28;20048;-70
2022/07/25 02:19:35;;;;;;;1.70;1.60;;;;;;;;;;5075783;28;20443;-70
2022/07/25 02:22:01;;;;;;;1.92;1.80;;;;;;;;;;5075436;28;20338;-70
2022/07/25 02:24:27;;;;;;;1.85;1.70;;;;;;;;;;5075446;28;20104;-70
2022/07/25 02:26:52;;;;;;;2.35;1.58;;;;;;;;;;5075596;28;20464;-70
2022/07/25 02:29:17;;;;;;;1.80;1.70;;;;;;;;;;5075361;28;20337;-70
2022/07/25 02:31:43;;;;;;;2.38;1.45;;;;;;;;;;5075084;28;20372;-70
2022/07/25 02:34:08;;;;;;;1.60;1.50;;;;;;;;;;5075294;28;20098;-70
2022/07/25 02:36:33;;;;;;;1.65;1.58;;;;;;;;;;5057498;28;20100;-70
2022/07/25 02:38:59;;;;;;;1.60;1.50;;;;;;;;;;5074925;28;20032;-70
2022/07/25 02:41:24;;;;;;;1.55;1.45;;;;;;;;;;5075304;28;20070;-70
2022/07/25 02:43:50;;;;;;;1.63;1.52;;;;;;;;;;5075062;28;20516;-70
2022/07/25 02:46:15;;;;;;;1.90;1.70;;;;;;;;;;5075114;28;20025;-70
2022/07/25 02:48:41;;;;;;;1.60;1.50;;;;;;;;;;5075057;28;20027;-70
2022/07/25 02:51:06;;;;;;;1.50;1.40;;;;;;;;;;5074499;28;20008;-70
2022/07/25 02:53:31;;;;;;;1.60;1.50;;;;;;;;;;5074636;28;20036;-70
2022/07/25 02:55:57;;;;;;;1.85;1.38;;;;;;;;;;5074819;28;20033;-70
2022/07/25 02:58:23;;;;;;;1.58;1.38;;;;;;;;;;5074375;28;20040;-69
2022/07/25 03:00:48;;;;;;;1.52;1.35;;;;;;;;;;5074427;28;20020;-68
2022/07/25 03:03:14;;;;;;;2.20;1.52;;;;;;;;;;5056903;28;20047;-69
2022/07/25 03:05:39;;;;;;;1.48;1.38;;;;;;;;;;5074478;28;20071;-70
2022/07/25 03:08:05;;;;;;;1.17;1.08;;;;;;;;;;5074211;28;20372;-68
2022/07/25 03:10:30;;;;;;;1.83;1.35;;;;;;;;;;5074526;28;20491;-70
2022/07/25 03:12:56;;;;;;;2.22;1.50;;;;;;;;;;5074770;28;20036;-70
2022/07/25 03:15:21;;;;;;;1.50;1.40;;;;;;;;;;5074268;28;20025;-70
2022/07/25 03:17:47;;;;;;;1.95;1.75;;;;;;;;;;5074202;28;20025;-71
2022/07/25 03:20:12;;;;;;;2.67;1.80;;;;;;;;;;5074451;28;20456;-70
2022/07/25 03:22:38;;;;;;;2.97;1.92;;;;;;;;;;5074090;28;20066;-70
2022/07/25 03:25:04;;;;;;;1.90;1.73;;;;;;;;;;5073828;28;20028;-70
2022/07/25 03:27:29;;;;;;;1.70;1.60;;;;;;;;;;5074321;28;20530;-70
2022/07/25 03:29:54;;;;;;;2.35;1.40;;;;;;;;;;5073792;28;20016;-69
2022/07/25 03:32:20;;;;;;;1.70;1.60;;;;;;;;;;5073988;28;20049;-69
2022/07/25 03:34:45;;;;;;;1.63;1.52;;;;;;;;;;5074266;28;20020;-70
2022/07/25 03:37:11;;;;;;;2.60;1.60;;;;;;;;;;5074253;28;20029;-69
2022/07/25 03:39:36;;;;;;;1.50;1.40;;;;;;;;;;5074234;28;20036;-70
2022/07/25 03:42:02;;;;;;;1.48;1.38;;;;;;;;;;5073909;28;20384;-70
2022/07/25 03:44:27;;;;;;;1.55;1.45;;;;;;;;;;5073677;28;20024;-70
2022/07/25 03:46:53;;;;;;;1.42;1.33;;;;;;;;;;5073879;28;20033;-70
2022/07/25 03:49:18;;;;;;;1.48;1.38;;;;;;;;;;5055998;28;20025;-71
2022/07/25 03:51:44;;;;;;;1.60;1.50;;;;;;;;;;5074096;28;20043;-70
2022/07/25 03:54:12;;;;;;;1.77;1.67;;;;;;;;;;5074101;28;20013;-70
2022/07/25 03:56:39;;;;;;;3.00;2.00;;;;;;;;;;5073866;28;20090;-70
2022/07/25 03:59:05;;;;;;;2.40;1.65;;;;;;;;;;5073757;28;20025;-69
2022/07/25 04:01:31;;;;;;;1.55;1.45;;;;;;;;;;5073875;28;20440;-70
2022/07/25 04:03:56;;;;;;;1.40;1.40;;;;;;;;;;5073731;28;20095;-70
2022/07/25 04:06:22;;;;;;;1.65;1.55;;;;;;;;;;5073322;28;20119;-70
2022/07/25 04:08:47;;;;;;;2.92;1.50;;;;;;;;;;5073386;28;20017;-70
2022/07/25 04:11:13;;;;;;;2.25;1.45;;;;;;;;;;5073841;28;20020;-70
2022/07/25 04:13:38;;;;;;;1.98;1.55;;;;;;;;;;5056079;28;20013;-70
2022/07/25 04:16:04;;;;;;;1.63;1.52;;;;;;;;;;5055322;28;20515;-70
2022/07/25 04:18:29;;;;;;;1.60;1.50;;;;;;;;;;5073622;28;20085;-70
2022/07/25 04:20:55;;;;;;;2.03;1.60;;;;;;;;;;5075571;28;20112;-70
2022/07/25 04:23:20;;;;;;;1.45;1.35;;;;;;;;;;5077276;28;20041;-71
2022/07/25 04:25:46;;;;;;;2.55;1.52;;;;;;;;;;5077102;28;20056;-70
2022/07/25 04:28:11;;;;;;;3.80;1.35;;;;;;;;;;5059204;28;20426;-71
2022/07/25 04:30:37;;;;;;;1.58;1.40;;;;;;;;;;5077689;28;20020;-71
2022/07/25 04:33:03;;;;;;;1.50;1.40;;;;;;;;;;5077093;28;20522;-71
2022/07/25 04:35:28;;;;;;;1.77;1.67;;;;;;;;;;5077272;28;20039;-71
2022/07/25 04:37:54;;;;;;;1.27;1.25;;;;;;;;;;5076887;28;20025;-71
2022/07/25 04:40:19;;;;;;;1.75;1.27;;;;;;;;;;5076520;28;20052;-71
2022/07/25 04:42:44;;;;;;;1.42;1.33;;;;;;;;;;5075161;28;20026;-71
2022/07/25 04:45:10;;;;;;;1.98;1.30;;;;;;;;;;5075771;28;20129;-71
2022/07/25 04:47:35;;;;;;;2.35;1.45;;;;;;;;;;5075480;28;20056;-69
2022/07/25 04:50:01;;;;;;;1.50;1.40;;;;;;;;;;5076056;28;20471;-70
2022/07/25 04:52:26;;;;;;;3.53;1.50;;;;;;;;;;5076113;28;20039;-70
2022/07/25 04:54:52;;;;;;;1.58;1.50;;;;;;;;;;5076358;28;20044;-70
2022/07/25 04:57:17;;;;;;;4.32;1.80;;;;;;;;;;5076344;28;20024;-70
2022/07/25 04:59:43;;;;;;;10.15;3.88;;;;;;;;;;5076359;28;20520;-70
2022/07/25 05:02:08;;;;;;;9.18;3.45;;;;;;;;;;5076222;28;20013;-70
2022/07/25 05:04:34;;;;;;;6.53;2.88;;;;;;;;;;5076172;28;20043;-70
2022/07/25 05:06:59;;;;;;;6.07;2.72;;;;;;;;;;5075742;28;20025;-70
2022/07/25 05:09:26;;;;;;;4.55;2.53;;;;;;;;;;5076195;28;20113;-70
2022/07/25 05:11:51;;;;;;;3.17;2.58;;;;;;;;;;5076062;28;20012;-70
2022/07/25 05:14:17;;;;;;;3.13;1.92;;;;;;;;;;5076118;28;20027;-70
2022/07/25 05:16:42;;;;;;;1.85;1.75;;;;;;;;;;5076001;28;20111;-70
2022/07/25 05:19:08;;;;;;;3.72;1.85;;;;;;;;;;5058045;28;20024;-70
2022/07/25 05:21:33;;;;;;;2.10;2.00;;;;;;;;;;5075854;28;20119;-70
2022/07/25 05:23:59;;;;;;;2.47;1.83;;;;;;;;;;5075738;28;20444;-70
2022/07/25 05:26:25;;;;;;;2.60;1.65;;;;;;;;;;5075515;28;20036;-70
2022/07/25 05:28:50;;;;;;;1.80;1.70;;;;;;;;;;5075607;28;20067;-69
2022/07/25 05:31:15;;;;;;;2.00;1.90;;;;;;;;;;5075261;28;20028;-70
2022/07/25 05:33:41;;;;;;;5.25;1.70;;;;;;;;;;5075931;28;20017;-71
2022/07/25 05:36:07;;;;;;;2.50;1.95;;;;;;;;;;5075639;28;20464;-70
2022/07/25 05:38:33;;;;;;;1.65;1.55;;;;;;;;;;5075537;28;20032;-69
2022/07/25 05:40:59;;;;;;;1.80;1.70;;;;;;;;;;5075400;28;20464;-70
2022/07/25 05:43:24;;;;;;;1.95;1.77;;;;;;;;;;5075362;28;20372;-70
2022/07/25 05:45:50;;;;;;;2.95;1.80;;;;;;;;;;5075351;28;20024;-70
2022/07/25 05:48:15;;;;;;;5.85;2.10;;;;;;;;;;5074983;28;20541;-70
2022/07/25 05:50:41;;;;;;;7.65;1.98;;;;;;;;;;5075471;28;20034;-70
2022/07/25 05:53:06;;;;;;;13.20;2.00;;;;;;;;;;5075297;28;20100;-70
2022/07/25 05:55:32;;;;;;;101.53;6.10;;;;;;;;;;5075275;28;20017;-71
2022/07/25 05:57:57;;;;;;;1.50;1.40;;;;;;;;;;5075274;28;20036;-70
2022/07/25 06:00:23;;;;;;;2.72;1.30;;;;;;;;;;5075083;28;20012;-70
2022/07/25 06:02:48;;;;;;;2.80;1.55;;;;;;;;;;5075119;28;20052;-70
2022/07/25 06:05:14;;;;;;;1.98;1.40;;;;;;;;;;5074786;28;20727;-70
2022/07/25 06:07:40;;;;;;;460.55;20.83;;;;;;;;;;5075052;28;20028;-70
2022/07/25 06:10:05;;;;;;;1.50;1.40;;;;;;;;;;5074979;28;20012;-70
2022/07/25 06:12:32;;;;;;;2.75;1.55;;;;;;;;;;5075114;28;20042;-71
2022/07/25 06:14:58;;;;;;;1.67;1.58;;;;;;;;;;5075226;28;20062;-70
2022/07/25 06:20:59;;;;;;;4.90;1.80;;;;;;;;;;5075369;28;20122;-70
2022/07/25 06:31:27;;;;;;;1.40;1.30;;;;;;;;;;5075201;28;20027;-71
2022/07/25 06:37:28;;;;;;;1.95;1.85;;;;;;;;;;5074996;28;20047;-70
2022/07/25 06:43:28;;;;;;;1.38;1.27;;;;;;;;;;5074035;28;20114;-70
2022/07/25 06:49:28;;;;;;;2.03;1.42;;;;;;;;;;5074763;28;20566;-70
2022/07/25 06:55:29;;;;;;;1.10;1.10;;;;;;;;;;5074660;28;20099;-70
2022/07/25 07:01:29;;;;;;;1.60;1.17;;;;;;;;;;5074531;28;20567;-70
2022/07/25 07:07:29;;;;;;;2.08;1.10;;;;;;;;;;5074480;28;20035;-70
2022/07/25 07:13:29;;;;;;;1.63;1.20;;;;;;;;;;5074311;28;20503;-70
2022/07/25 07:19:30;;;;;;;1.58;1.05;;;;;;;;;;5074275;28;20028;-71
2022/07/25 07:25:31;;;;;;;2.72;2.05;;;;;;;;;;5073747;28;20455;-74
2022/07/25 07:31:45;;;;;;;4.88;1.67;;;;;;;;;;5073814;28;20031;-70
2022/07/25 07:37:46;;;;;;;2.28;1.50;;;;;;;;;;5074013;28;20108;-70
2022/07/25 07:43:47;;;;;;;3.42;1.50;;;;;;;;;;5073973;28;20102;-70
2022/07/25 07:49:48;;;;;;;1.83;1.50;;;;;;;;;;5073666;28;20383;-69
2022/07/25 07:55:54;;;;;;;2.08;1.30;;;;;;;;;;5073580;28;20549;-70
2022/07/25 08:01:24;;;;;;;1.15;1.15;;;;;;;;;;5073439;28;20029;-70
2022/07/25 08:03:49;;;;;;;1.85;1.40;;;;;;;;;;5055750;28;20043;-69
2022/07/25 08:06:15;;;;;;;2.17;1.20;;;;;;;;;;5073557;28;20032;-69
2022/07/25 08:08:40;;;;;;;2.28;1.10;;;;;;;;;;5073977;28;20027;-69
2022/07/25 08:11:05;;;;;;;1.30;1.08;;;;;;;;;;5073844;28;20029;-70
2022/07/25 08:13:32;;;;;;;1.30;1.23;;;;;;;;;;5073585;28;20023;-69
2022/07/25 08:16:00;;;;;;;1.40;1.30;;;;;;;;;;5073258;28;20047;-70
2022/07/25 08:18:28;;;;;;;1.73;1.05;;;;;;;;;;5073417;28;20082;-70
2022/07/25 08:20:54;;;;;;;2.35;1.27;;;;;;;;;;5073234;28;20025;-70
2022/07/25 08:23:19;;;;;;;1.35;1.20;;;;;;;;;;5073108;28;20488;-70
2022/07/25 08:25:45;;;;;;;1.67;1.55;;;;;;;;;;5073575;28;20032;-70
2022/07/25 08:28:11;;;;;;;1.75;1.20;;;;;;;;;;5073328;28;20048;-70
2022/07/25 08:30:37;;;;;;;1.77;1.50;;;;;;;;;;5073140;28;20021;-69
2022/07/25 08:33:04;;;;;;;2.30;1.58;;;;;;;;;;5072395;28;20105;-69
2022/07/25 08:39:05;;;;;;;4.43;4.15;;;;;;;;;;5073373;28;20482;-69
2022/07/25 08:45:08;;;;;;;1.15;1.10;;;;;;;;;;5072958;28;20024;-69
2022/07/25 08:51:09;;;;;;;4.10;1.58;;;;;;;;;;5073326;28;20412;-69
2022/07/25 08:57:10;;;;;;;1.50;1.30;;;;;;;;;;5073227;28;20027;-69
2022/07/25 09:03:11;;;;;;;2.38;1.52;;;;;;;;;;5073191;28;20047;-71
2022/07/25 09:05:42;;;;;;;1.10;1.05;;;;;;;;;;5072917;28;20025;-70
2022/07/25 09:08:09;;;;;;;1.30;1.13;;;;;;;;;;5076259;28;20062;-70
2022/07/25 09:10:35;;;;;;;1.40;1.20;;;;;;;;;;5076535;28;20021;-70
2022/07/25 09:13:01;;;;;;;1.33;1.20;;;;;;;;;;5058468;28;20025;-69
2022/07/25 09:15:32;;;;;;;1.05;0.98;;;;;;;;;;5076315;28;20023;-69
2022/07/25 09:17:59;;;;;;;1.38;1.27;;;;;;;;;;5075735;28;20025;-69
2022/07/25 09:20:35;;;;;;;1.67;1.42;;;;;;;;;;5076214;28;20021;-70
2022/07/25 09:23:00;;;;;;;1.58;1.48;;;;;;;;;;5076105;28;20028;-69
2022/07/25 09:25:28;;;;;;;2.35;1.08;;;;;;;;;;5075860;28;20464;-69
2022/07/25 09:27:54;;;;;;;1.98;1.13;;;;;;;;;;5075660;28;20037;-69
2022/07/25 09:30:20;;;;;;;1.40;1.30;;;;;;;;;;5076817;28;20024;-69
2022/07/25 09:32:45;;;;;;;1.10;1.10;;;;;;;;;;5076543;28;20024;-69
2022/07/25 09:35:11;;;;;;;2.45;1.20;;;;;;;;;;5075326;28;20464;-69
2022/07/25 09:37:37;;;;;;;1.42;1.30;;;;;;;;;;5075699;28;20043;-69
2022/07/25 09:40:10;;;;;;;1.45;1.35;;;;;;;;;;5075545;28;20025;-69
2022/07/25 09:42:36;;;;;;;3.10;1.20;;;;;;;;;;5075642;28;20456;-70
2022/07/25 09:45:05;;;;;;;1.30;1.20;;;;;;;;;;5075519;28;20028;-70
2022/07/25 09:47:31;;;;;;;2.17;1.48;;;;;;;;;;5075272;28;20031;-70
2022/07/25 09:49:57;;;;;;;1.75;1.42;;;;;;;;;;5075142;28;20510;-70
2022/07/25 09:52:22;;;;;;;1.73;1.50;;;;;;;;;;5075386;28;20036;-70
2022/07/25 09:54:48;;;;;;;1.50;1.38;;;;;;;;;;5075397;28;20017;-70
2022/07/25 09:57:13;;;;;;;1.20;1.10;;;;;;;;;;5057030;28;20070;-69
2022/07/25 10:03:24;;;;;;;1.77;1.20;;;;;;;;;;5075742;28;20431;-69
2022/07/25 10:09:25;;;;;;;1.48;1.40;;;;;;;;;;5075630;28;20036;-69
2022/07/25 10:15:26;;;;;;;1.73;1.02;;;;;;;;;;5075487;28;20023;-69
2022/07/25 10:21:28;;;;;;;1.13;1.10;;;;;;;;;;5075342;28;20035;-69
2022/07/25 10:31:20;;;;;;;2.42;1.30;;;;;;;;;;5075169;28;20491;-69
2022/07/25 10:37:31;;;;;;;2.00;1.17;;;;;;;;;;5075068;28;20104;-69
2022/07/25 10:43:35;;;;;;;0.95;0.95;;;;;;;;;;5074926;28;20032;-70
2022/07/25 10:49:38;;;;;;;1.98;1.13;;;;;;;;;;5074547;28;20469;-70
2022/07/25 10:55:39;;;;;;;1.25;1.15;;;;;;;;;;5074656;28;20051;-69
2022/07/25 11:01:41;;;;;;;1.25;1.17;;;;;;;;;;5074544;28;20102;-70
2022/07/25 11:07:52;;;;;;;1.30;1.20;;;;;;;;;;5074196;28;20082;-69
2022/07/25 11:13:53;;;;;;;1.58;1.48;;;;;;;;;;5074090;28;20073;-70
2022/07/25 11:19:57;;;;;;;1.65;1.30;;;;;;;;;;5074237;28;20099;-69
2022/07/25 11:33:14;;;;;;;1.40;1.27;;;;;;;;;;5074102;28;20104;-69
2022/07/25 11:39:16;;;;;;;1.38;1.27;;;;;;;;;;5074021;28;20051;-69
2022/07/25 11:45:18;;;;;;;1.50;1.40;;;;;;;;;;5073687;28;20387;-69
2022/07/25 11:51:18;;;;;;;1.67;1.27;;;;;;;;;;5073923;28;20108;-70
2022/07/25 11:57:25;;;;;;;1.42;1.30;;;;;;;;;;5073822;28;20109;-70
2022/07/25 12:10:36;;;;;;;1.05;1.05;;;;;;;;;;5032057;28;20064;-70
2022/07/25 12:13:38;;;;;;;1.10;1.00;;;;;;;;;;5014858;28;20033;-70
2022/07/25 12:19:38;;;;;;;2.10;1.40;;;;;;;;;;5031393;28;20064;-69
2022/07/25 12:25:43;;;;;;;1.40;1.30;;;;;;;;;;5031525;28;20036;-69
2022/07/25 12:36:12;;;;;;;2.75;1.15;;;;;;;;;;5032918;28;20531;-69
2022/07/25 12:42:13;;;;;;;1.20;1.20;;;;;;;;;;5055745;28;20082;-69
2022/07/25 12:48:14;;;;;;;1.30;1.02;;;;;;;;;;5056421;28;20040;-71
2022/07/25 12:50:40;;;;;;;1.77;1.10;;;;;;;;;;5056253;28;20029;-72
2022/07/25 12:53:06;;;;;;;1.50;1.20;;;;;;;;;;5056027;28;20457;-70
2022/07/25 12:55:32;;;;;;;1.42;1.20;;;;;;;;;;5056223;28;20033;-70
2022/07/25 12:57:57;;;;;;;1.10;1.00;;;;;;;;;;5056333;28;20024;-71
2022/07/25 13:00:23;;;;;;;1.38;1.08;;;;;;;;;;5056337;28;20132;-70
2022/07/25 13:02:54;;;;;;;1.05;1.05;;;;;;;;;;5056060;28;20540;-70
2022/07/25 13:05:20;;;;;;;0.90;0.90;;;;;;;;;;5056295;28;20033;-70
2022/07/25 13:07:47;;;;;;;1.95;1.20;;;;;;;;;;5055764;28;20074;-70
2022/07/25 13:10:13;;;;;;;1.52;1.10;;;;;;;;;;5056000;28;20021;-70
2022/07/25 13:12:38;;;;;;;1.67;1.02;;;;;;;;;;5056036;28;20085;-71
2022/07/25 13:15:04;;;;;;;1.20;1.10;;;;;;;;;;5056026;28;20515;-70
2022/07/25 13:17:30;;;;;;;1.80;1.20;;;;;;;;;;5056176;28;20432;-70
2022/07/25 13:19:55;;;;;;;1.00;1.00;;;;;;;;;;5055988;28;20124;-70
2022/07/25 13:22:21;;;;;;;0.90;0.90;;;;;;;;;;5055813;28;20029;-71
2022/07/25 13:24:46;;;;;;;1.00;1.00;;;;;;;;;;5055862;28;20040;-71
2022/07/25 13:27:12;;;;;;;0.73;0.73;;;;;;;;;;5055818;28;20029;-70
2022/07/25 13:29:37;;;;;;;1.70;1.13;;;;;;;;;;5055802;28;20025;-70
2022/07/25 13:32:02;;;;;;;1.08;1.08;;;;;;;;;;5074256;28;20048;-70
2022/07/25 13:34:29;;;;;;;1.00;1.00;;;;;;;;;;5075566;28;20025;-70
2022/07/25 13:36:55;;;;;;;1.73;1.10;;;;;;;;;;5075459;28;20031;-70
2022/07/25 13:39:21;;;;;;;1.50;1.40;;;;;;;;;;5075667;28;20028;-70
2022/07/25 13:41:47;;;;;;;1.20;1.20;;;;;;;;;;5057565;28;20474;-70
2022/07/25 13:44:14;;;;;;;2.03;1.05;;;;;;;;;;5075525;28;20039;-70
2022/07/25 13:46:39;;;;;;;2.10;1.45;;;;;;;;;;5075170;28;20036;-70
2022/07/25 13:49:05;;;;;;;1.45;1.35;;;;;;;;;;5075303;28;20039;-70
2022/07/25 13:51:30;;;;;;;1.40;1.27;;;;;;;;;;5075261;28;20449;-71
2022/07/25 13:53:56;;;;;;;1.25;1.15;;;;;;;;;;5074945;28;20031;-71
2022/07/25 13:56:21;;;;;;;2.15;1.13;;;;;;;;;;5075421;28;20027;-71
2022/07/25 13:58:47;;;;;;;2.03;1.10;;;;;;;;;;5075026;28;20028;-71
2022/07/25 14:01:12;;;;;;;2.35;1.10;;;;;;;;;;5074372;28;20029;-71
2022/07/25 14:03:38;;;;;;;0.98;0.98;;;;;;;;;;5074974;28;20028;-72
2022/07/25 14:06:03;;;;;;;1.30;1.10;;;;;;;;;;5075053;28;20475;-71
2022/07/25 14:08:29;;;;;;;2.15;1.00;;;;;;;;;;5074994;28;20115;-71
2022/07/25 14:10:54;;;;;;;1.20;1.08;;;;;;;;;;5075201;28;20025;-71
2022/07/25 14:13:20;;;;;;;23.63;1.90;;;;;;;;;;5075261;28;20186;-71
2022/07/25 14:19:20;;;;;;;1.10;1.00;;;;;;;;;;5075469;28;20077;-71
2022/07/25 14:25:21;;;;;;;1.00;1.00;;;;;;;;;;5075333;28;20032;-71
2022/07/25 14:34:59;;;;;;;1.67;0.90;;;;;;;;;;5075129;28;20062;-73
2022/07/25 14:41:00;;;;;;;2.22;1.10;;;;;;;;;;5075021;28;20407;-72
2022/07/25 14:47:01;;;;;;;1.75;0.95;;;;;;;;;;5074714;28;20076;-71
2022/07/25 14:53:02;;;;;;;1.40;1.30;;;;;;;;;;5074764;28;20058;-71
2022/07/25 15:02:14;;;;;;;1.20;1.13;;;;;;;;;;5074588;28;20020;-71
2022/07/25 15:08:15;;;;;;;1.27;1.17;;;;;;;;;;5074179;28;20039;-71
2022/07/25 15:14:16;;;;;;;1.02;1.02;;;;;;;;;;5074405;28;20082;-71
2022/07/25 15:16:42;;;;;;;1.13;1.10;;;;;;;;;;5074297;28;20036;-71
2022/07/25 15:19:07;;;;;;;1.15;1.15;;;;;;;;;;5074446;28;20028;-71
2022/07/25 15:21:33;;;;;;;2.60;2.50;;;;;;;;;;5073426;28;20120;-71
2022/07/25 15:23:58;;;;;;;1.98;1.30;;;;;;;;;;5073190;28;20028;-71
2022/07/25 15:26:24;;;;;;;1.10;1.10;;;;;;;;;;5073490;28;20029;-71
2022/07/25 15:28:49;;;;;;;1.30;1.20;;;;;;;;;;5074146;28;20372;-71
2022/07/25 15:31:16;;;;;;;1.25;1.00;;;;;;;;;;5073654;28;20388;-71
2022/07/25 15:33:42;;;;;;;1.52;1.42;;;;;;;;;;5057010;28;20104;-71
2022/07/25 15:36:07;;;;;;;1.00;1.00;;;;;;;;;;5073979;28;20100;-71
2022/07/25 15:38:33;;;;;;;1.30;1.20;;;;;;;;;;5055287;28;20428;-71
2022/07/25 15:40:59;;;;;;;1.10;1.10;;;;;;;;;;5055161;28;20017;-71
2022/07/25 15:43:24;;;;;;;1.33;1.23;;;;;;;;;;5073655;28;20020;-71
2022/07/25 15:45:50;;;;;;;1.88;1.00;;;;;;;;;;5074025;28;20038;-71
2022/07/25 15:48:16;;;;;;;1.70;1.60;;;;;;;;;;5073508;28;20037;-71
2022/07/25 15:50:43;;;;;;;2.22;1.48;;;;;;;;;;5073385;28;20023;-71
2022/07/25 15:53:08;;;;;;;1.95;1.20;;;;;;;;;;5074292;28;20095;-71
2022/07/25 15:55:35;;;;;;;1.35;1.25;;;;;;;;;;5073320;28;20029;-71
2022/07/25 15:58:01;;;;;;;0.95;0.95;;;;;;;;;;5074285;28;20121;-71
2022/07/25 16:00:26;;;;;;;1.35;1.10;;;;;;;;;;5072974;28;20048;-71
2022/07/25 16:02:51;;;;;;;1.40;1.30;;;;;;;;;;5073152;28;20456;-71
2022/07/25 16:05:17;;;;;;;1.00;1.00;;;;;;;;;;5073666;28;20025;-71
2022/07/25 16:07:42;;;;;;;1.40;1.30;;;;;;;;;;5073167;28;20036;-71
2022/07/25 16:10:08;;;;;;;1.58;1.20;;;;;;;;;;5073982;28;20016;-71
2022/07/25 16:12:34;;;;;;;2.60;1.33;;;;;;;;;;5073423;28;20116;-71
2022/07/25 16:14:59;;;;;;;3.30;1.23;;;;;;;;;;5073998;28;20040;-71
2022/07/25 16:17:27;;;;;;;1.00;1.00;;;;;;;;;;5077476;28;20418;-71
2022/07/25 16:19:52;;;;;;;2.50;1.10;;;;;;;;;;5059375;28;20388;-71
2022/07/25 16:22:18;;;;;;;2.17;1.10;;;;;;;;;;5077370;28;20032;-71
2022/07/25 16:24:43;;;;;;;1.02;0.85;;;;;;;;;;5077585;28;20105;-71
2022/07/25 16:27:09;;;;;;;1.08;1.00;;;;;;;;;;5077225;28;20361;-71
2022/07/25 16:29:34;;;;;;;1.20;1.10;;;;;;;;;;5077704;28;20020;-71
2022/07/25 16:32:00;;;;;;;1.17;1.10;;;;;;;;;;5077047;28;20036;-71
2022/07/25 16:34:25;;;;;;;1.58;1.00;;;;;;;;;;5076611;28;20111;-71
2022/07/25 16:36:52;;;;;;;0.93;0.90;;;;;;;;;;5078043;28;20052;-71
2022/07/25 16:39:18;;;;;;;2.28;1.10;;;;;;;;;;5077056;28;20435;-71
2022/07/25 16:41:44;;;;;;;0.93;0.93;;;;;;;;;;5077381;28;20029;-71
2022/07/25 16:44:09;;;;;;;1.23;1.10;;;;;;;;;;5077665;28;20021;-71
2022/07/25 16:46:35;;;;;;;1.38;1.25;;;;;;;;;;5077426;28;20041;-71
2022/07/25 16:49:01;;;;;;;1.77;1.00;;;;;;;;;;5076887;28;20020;-71
2022/07/25 16:51:26;;;;;;;1.15;1.10;;;;;;;;;;5077059;28;20028;-72
2022/07/25 16:53:52;;;;;;;2.13;1.30;;;;;;;;;;5059246;28;20062;-71
2022/07/25 16:56:18;;;;;;;2.25;1.23;;;;;;;;;;5077095;28;20029;-71
2022/07/25 16:58:45;;;;;;;1.20;1.10;;;;;;;;;;5077082;28;20093;-71
2022/07/25 17:01:11;;;;;;;2.35;1.65;;;;;;;;;;5077187;28;20031;-71
2022/07/25 17:03:36;;;;;;;5.18;1.50;;;;;;;;;;5076907;28;20008;-71
2022/07/25 17:06:02;;;;;;;0.90;0.90;;;;;;;;;;5058624;28;20055;-71
2022/07/25 17:08:27;;;;;;;1.58;0.90;;;;;;;;;;5076489;28;20017;-71
2022/07/25 17:10:54;;;;;;;3.13;1.23;;;;;;;;;;5076743;28;20497;-72
2022/07/25 17:13:19;;;;;;;2.78;1.30;;;;;;;;;;5076727;28;20103;-71
2022/07/25 17:15:45;;;;;;;2.35;1.00;;;;;;;;;;5076673;28;20031;-71
2022/07/25 17:18:10;;;;;;;1.35;1.15;;;;;;;;;;5076969;28;20028;-71
2022/07/25 17:20:36;;;;;;;4.00;1.40;;;;;;;;;;5076770;28;20040;-71
2022/07/25 17:23:01;;;;;;;2.30;1.33;;;;;;;;;;5076925;28;20020;-71
2022/07/25 17:25:27;;;;;;;2.03;1.13;;;;;;;;;;5076686;28;20099;-71
2022/07/25 17:27:52;;;;;;;3.83;1.65;;;;;;;;;;5075679;28;20044;-71
2022/07/25 17:30:18;;;;;;;3.55;1.90;;;;;;;;;;5076339;28;20071;-71
2022/07/25 17:32:43;;;;;;;3.13;2.70;;;;;;;;;;5076074;28;20031;-71
2022/07/25 17:35:08;;;;;;;4.30;3.75;;;;;;;;;;5076146;28;20039;-71
2022/07/25 17:37:34;;;;;;;3.50;3.13;;;;;;;;;;5076719;28;20052;-71
2022/07/25 17:39:59;;;;;;;3.40;3.10;;;;;;;;;;5076131;28;20024;-71
2022/07/25 17:42:25;;;;;;;3.88;3.40;;;;;;;;;;5076117;28;20051;-71
2022/07/25 17:44:50;;;;;;;9.93;5.78;;;;;;;;;;5075846;28;20033;-71
2022/07/25 17:47:16;;;;;;;21.42;8.18;;;;;;;;;;5075955;28;20411;-71
2022/07/25 17:49:42;;;;;;;5.40;3.92;;;;;;;;;;5076333;28;20027;-71
2022/07/25 17:52:08;;;;;;;3.80;2.47;;;;;;;;;;5075475;28;20028;-71
2022/07/25 17:54:33;;;;;;;4.55;3.38;;;;;;;;;;5076487;28;20035;-71
2022/07/25 17:56:59;;;;;;;4.47;2.13;;;;;;;;;;5075599;28;20368;-71
2022/07/25 17:59:24;;;;;;;3.10;1.80;;;;;;;;;;5075472;28;20035;-71
2022/07/25 18:01:49;;;;;;;5.47;2.92;;;;;;;;;;5075154;28;20105;-71
2022/07/25 18:04:15;;;;;;;4.65;2.97;;;;;;;;;;5075218;28;20036;-71
2022/07/25 18:06:40;;;;;;;4.68;4.03;;;;;;;;;;5075070;28;20074;-72
2022/07/25 18:09:06;;;;;;;13.00;8.45;;;;;;;;;;5074795;28;20078;-71
2022/07/25 18:11:31;;;;;;;15.82;7.63;;;;;;;;;;5075206;28;20078;-71
2022/07/25 18:13:58;;;;;;;19.80;11.52;;;;;;;;;;5075763;28;20037;-71
2022/07/25 18:19:58;;;;;;;23.42;9.80;;;;;;;;;;5075215;28;20024;-71
2022/07/25 18:25:59;;;;;;;17.23;10.15;;;;;;;;;;5075346;28;20380;-71
2022/07/25 18:35:49;;;;;;;7.22;2.85;;;;;;;;;;5075113;28;20032;-71
2022/07/25 18:41:49;;;;;;;5.30;3.30;;;;;;;;;;5075064;28;20550;-71
2022/07/25 18:47:50;;;;;;;42.35;22.08;;;;;;;;;;5074573;28;20074;-71